sensor_id;sensor_type;location;lat;lon;timestamp;pressure;altitude;pressure_sealevel;temperature;humidity
55994;BME280;67425;52.126;20.638;2023-12-04T00:00:24;58056.34;;;-144.78;100.00
55994;BME280;67425;52.126;20.638;2023-12-04T00:02:50;58064.66;;;-144.78;100.00
55994;BME280;67425;52.126;20.638;2023-12-04T00:05:15;58060.50;;;-144.78;100.00
55994;BME280;67425;52.126;20.638;2023-12-04T00:07:40;58075.03;;;-144.78;100.00
55994;BME280;67425;52.126;20.638;2023-12-04T00:10:06;58031.41;;;-144.78;100.00
55994;BME280;67425;52.126;20.638;2023-12-04T00:12:32;58052.19;;;-144.78;100.00
55994;BME280;67425;52.126;20.638;2023-12-04T00:14:57;58058.41;;;-144.78;100.00
55994;BME280;67425;52.126;20.638;2023-12-04T00:17:23;58052.19;;;-144.78;100.00
55994;BME280;67425;52.126;20.638;2023-12-04T00:19:48;58050.09;;;-144.78;100.00
55994;BME280;67425;52.126;20.638;2023-12-04T00:22:13;58035.56;;;-144.78;100.00
55994;BME280;67425;52.126;20.638;2023-12-04T00:24:39;58043.88;;;-144.78;100.00
55994;BME280;67425;52.126;20.638;2023-12-04T00:27:04;58064.66;;;-144.78;100.00
55994;BME280;67425;52.126;20.638;2023-12-04T00:29:30;58075.03;;;-144.78;100.00
55994;BME280;67425;52.126;20.638;2023-12-04T00:31:55;58050.09;;;-144.78;100.00
55994;BME280;67425;52.126;20.638;2023-12-04T00:34:22;58062.56;;;-144.78;100.00
55994;BME280;67425;52.126;20.638;2023-12-04T00:36:47;58070.88;;;-144.78;100.00
55994;BME280;67425;52.126;20.638;2023-12-04T00:39:13;58066.72;;;-144.78;100.00
55994;BME280;67425;52.126;20.638;2023-12-04T00:41:38;58050.09;;;-144.78;100.00
55994;BME280;67425;52.126;20.638;2023-12-04T00:44:04;58056.34;;;-144.78;100.00
55994;BME280;67425;52.126;20.638;2023-12-04T00:46:29;58048.03;;;-144.78;100.00
55994;BME280;67425;52.126;20.638;2023-12-04T00:48:54;58056.34;;;-144.78;100.00
55994;BME280;67425;52.126;20.638;2023-12-04T00:51:20;58066.72;;;-144.78;100.00
55994;BME280;67425;52.126;20.638;2023-12-04T00:53:45;58058.41;;;-144.78;100.00
55994;BME280;67425;52.126;20.638;2023-12-04T00:56:10;58045.94;;;-144.78;100.00
55994;BME280;67425;52.126;20.638;2023-12-04T00:58:36;58077.09;;;-144.78;100.00
55994;BME280;67425;52.126;20.638;2023-12-04T01:01:01;58052.19;;;-144.78;100.00
55994;BME280;67425;52.126;20.638;2023-12-04T01:03:27;58056.34;;;-144.78;100.00
55994;BME280;67425;52.126;20.638;2023-12-04T01:05:52;58060.50;;;-144.78;100.00
55994;BME280;67425;52.126;20.638;2023-12-04T01:08:17;58048.03;;;-144.78;100.00
55994;BME280;67425;52.126;20.638;2023-12-04T01:10:43;58039.72;;;-144.78;100.00
55994;BME280;67425;52.126;20.638;2023-12-04T01:13:08;58068.81;;;-144.78;100.00
55994;BME280;67425;52.126;20.638;2023-12-04T01:15:34;58039.72;;;-144.78;99.40
55994;BME280;67425;52.126;20.638;2023-12-04T01:17:59;58052.19;;;-144.78;100.00
55994;BME280;67425;52.126;20.638;2023-12-04T01:20:25;58070.88;;;-144.78;100.00
55994;BME280;67425;52.126;20.638;2023-12-04T01:22:51;58056.34;;;-144.78;100.00
55994;BME280;67425;52.126;20.638;2023-12-04T01:25:16;58081.25;;;-144.78;100.00
55994;BME280;67425;52.126;20.638;2023-12-04T01:27:42;58037.66;;;-144.78;99.58
55994;BME280;67425;52.126;20.638;2023-12-04T01:30:07;58048.03;;;-144.78;99.00
55994;BME280;67425;52.126;20.638;2023-12-04T01:32:34;58075.03;;;-144.78;100.00
55994;BME280;67425;52.126;20.638;2023-12-04T01:35:00;58072.97;;;-144.78;99.98
55994;BME280;67425;52.126;20.638;2023-12-04T01:37:25;58045.94;;;-144.78;100.00
55994;BME280;67425;52.126;20.638;2023-12-04T01:39:50;58083.34;;;-144.78;100.00
55994;BME280;67425;52.126;20.638;2023-12-04T01:42:16;58045.94;;;-144.78;99.99
55994;BME280;67425;52.126;20.638;2023-12-04T01:44:41;58072.97;;;-144.78;99.35
55994;BME280;67425;52.126;20.638;2023-12-04T01:47:07;58077.09;;;-144.78;100.00
55994;BME280;67425;52.126;20.638;2023-12-04T01:49:32;58064.66;;;-144.78;99.65
55994;BME280;67425;52.126;20.638;2023-12-04T01:51:58;58075.03;;;-144.78;100.00
55994;BME280;67425;52.126;20.638;2023-12-04T01:54:24;58062.56;;;-144.78;100.00
55994;BME280;67425;52.126;20.638;2023-12-04T01:56:50;58104.13;;;-144.78;100.00
55994;BME280;67425;52.126;20.638;2023-12-04T01:59:15;58072.97;;;-144.78;100.00
55994;BME280;67425;52.126;20.638;2023-12-04T02:01:42;58054.25;;;-144.78;100.00
55994;BME280;67425;52.126;20.638;2023-12-04T02:04:07;58045.94;;;-144.78;99.78
55994;BME280;67425;52.126;20.638;2023-12-04T02:06:34;58083.34;;;-144.78;99.62
55994;BME280;67425;52.126;20.638;2023-12-04T02:09:00;58079.19;;;-144.78;99.80
55994;BME280;67425;52.126;20.638;2023-12-04T02:11:25;58062.56;;;-144.78;99.07
55994;BME280;67425;52.126;20.638;2023-12-04T02:13:50;58085.41;;;-144.78;99.65
55994;BME280;67425;52.126;20.638;2023-12-04T02:16:16;58077.09;;;-144.78;99.46
55994;BME280;67425;52.126;20.638;2023-12-04T02:18:43;58077.09;;;-144.78;99.06
55994;BME280;67425;52.126;20.638;2023-12-04T02:21:08;58081.25;;;-144.78;99.81
55994;BME280;67425;52.126;20.638;2023-12-04T02:23:34;58062.56;;;-144.78;99.01
55994;BME280;67425;52.126;20.638;2023-12-04T02:26:01;58070.88;;;-144.78;99.08
55994;BME280;67425;52.126;20.638;2023-12-04T02:28:36;58066.72;;;-144.78;98.70
55994;BME280;67425;52.126;20.638;2023-12-04T02:31:04;58031.41;;;-144.78;98.80
55994;BME280;67425;52.126;20.638;2023-12-04T02:33:30;58052.19;;;-144.78;99.51
55994;BME280;67425;52.126;20.638;2023-12-04T02:35:57;58066.72;;;-144.78;99.52
55994;BME280;67425;52.126;20.638;2023-12-04T02:38:24;58052.19;;;-144.78;99.68
55994;BME280;67425;52.126;20.638;2023-12-04T02:40:50;58089.56;;;-144.78;100.00
55994;BME280;67425;52.126;20.638;2023-12-04T02:43:16;58079.19;;;-144.78;99.61
55994;BME280;67425;52.126;20.638;2023-12-04T02:45:41;58085.41;;;-144.78;98.94
55994;BME280;67425;52.126;20.638;2023-12-04T02:48:07;58064.66;;;-144.78;99.30
55994;BME280;67425;52.126;20.638;2023-12-04T02:50:32;58054.25;;;-144.78;98.92
55994;BME280;67425;52.126;20.638;2023-12-04T02:52:58;58041.81;;;-144.78;98.01
55994;BME280;67425;52.126;20.638;2023-12-04T02:55:23;58058.41;;;-144.78;98.50
55994;BME280;67425;52.126;20.638;2023-12-04T02:57:48;58060.50;;;-144.78;98.64
55994;BME280;67425;52.126;20.638;2023-12-04T03:00:14;58070.88;;;-144.78;98.41
55994;BME280;67425;52.126;20.638;2023-12-04T03:02:40;58062.56;;;-144.78;97.66
55994;BME280;67425;52.126;20.638;2023-12-04T03:05:05;58056.34;;;-144.78;98.21
55994;BME280;67425;52.126;20.638;2023-12-04T03:07:31;58064.66;;;-144.78;98.81
55994;BME280;67425;52.126;20.638;2023-12-04T03:09:57;58056.34;;;-144.78;98.83
55994;BME280;67425;52.126;20.638;2023-12-04T03:12:22;58068.81;;;-144.78;99.61
55994;BME280;67425;52.126;20.638;2023-12-04T03:14:47;58070.88;;;-144.78;99.11
55994;BME280;67425;52.126;20.638;2023-12-04T03:17:13;58068.81;;;-144.78;98.92
55994;BME280;67425;52.126;20.638;2023-12-04T03:19:38;58093.72;;;-144.78;99.85
55994;BME280;67425;52.126;20.638;2023-12-04T03:22:03;58079.19;;;-144.78;99.55
55994;BME280;67425;52.126;20.638;2023-12-04T03:24:29;58104.13;;;-144.78;99.91
55994;BME280;67425;52.126;20.638;2023-12-04T03:26:54;58064.66;;;-144.78;100.00
55994;BME280;67425;52.126;20.638;2023-12-04T03:29:19;58070.88;;;-144.78;100.00
55994;BME280;67425;52.126;20.638;2023-12-04T03:31:45;58060.50;;;-144.78;99.73
55994;BME280;67425;52.126;20.638;2023-12-04T03:34:10;58079.19;;;-144.78;100.00
55994;BME280;67425;52.126;20.638;2023-12-04T03:36:36;58091.66;;;-144.78;99.69
55994;BME280;67425;52.126;20.638;2023-12-04T03:39:01;58077.09;;;-144.78;100.00
55994;BME280;67425;52.126;20.638;2023-12-04T03:41:26;58087.50;;;-144.78;100.00
55994;BME280;67425;52.126;20.638;2023-12-04T03:43:52;58081.25;;;-144.78;100.00
55994;BME280;67425;52.126;20.638;2023-12-04T03:46:17;58114.50;;;-144.78;100.00
55994;BME280;67425;52.126;20.638;2023-12-04T03:48:43;58089.56;;;-144.78;100.00
55994;BME280;67425;52.126;20.638;2023-12-04T03:51:08;58064.66;;;-144.78;99.31
55994;BME280;67425;52.126;20.638;2023-12-04T03:53:33;58066.72;;;-144.78;99.80
55994;BME280;67425;52.126;20.638;2023-12-04T03:55:59;58068.81;;;-144.78;99.96
55994;BME280;67425;52.126;20.638;2023-12-04T03:58:24;58095.81;;;-144.78;100.00
55994;BME280;67425;52.126;20.638;2023-12-04T04:00:50;58087.50;;;-144.78;100.00
55994;BME280;67425;52.126;20.638;2023-12-04T04:03:15;58066.72;;;-144.78;99.37
55994;BME280;67425;52.126;20.638;2023-12-04T04:05:40;58079.19;;;-144.78;99.66
55994;BME280;67425;52.126;20.638;2023-12-04T04:08:06;58066.72;;;-144.78;98.48
55994;BME280;67425;52.126;20.638;2023-12-04T04:10:33;58070.88;;;-144.78;100.00
55994;BME280;67425;52.126;20.638;2023-12-04T04:12:58;58058.41;;;-144.78;100.00
55994;BME280;67425;52.126;20.638;2023-12-04T04:15:23;58081.25;;;-144.78;99.17
55994;BME280;67425;52.126;20.638;2023-12-04T04:17:49;58089.56;;;-144.78;98.92
55994;BME280;67425;52.126;20.638;2023-12-04T04:20:14;58075.03;;;-144.78;99.05
55994;BME280;67425;52.126;20.638;2023-12-04T04:22:40;58070.88;;;-144.78;97.93
55994;BME280;67425;52.126;20.638;2023-12-04T04:25:09;58043.88;;;-144.78;97.88
55994;BME280;67425;52.126;20.638;2023-12-04T04:27:35;58075.03;;;-144.78;99.36
55994;BME280;67425;52.126;20.638;2023-12-04T04:30:01;58075.03;;;-144.78;99.79
55994;BME280;67425;52.126;20.638;2023-12-04T04:32:26;58062.56;;;-144.78;99.92
55994;BME280;67425;52.126;20.638;2023-12-04T04:34:52;58079.19;;;-144.78;99.62
55994;BME280;67425;52.126;20.638;2023-12-04T04:37:17;58066.72;;;-144.78;99.15
55994;BME280;67425;52.126;20.638;2023-12-04T04:39:43;58041.81;;;-144.78;99.46
55994;BME280;67425;52.126;20.638;2023-12-04T04:42:08;58064.66;;;-144.78;99.79
55994;BME280;67425;52.126;20.638;2023-12-04T04:44:33;58050.09;;;-144.78;99.40
55994;BME280;67425;52.126;20.638;2023-12-04T04:46:59;58050.09;;;-144.78;98.43
55994;BME280;67425;52.126;20.638;2023-12-04T04:49:24;58056.34;;;-144.78;99.15
55994;BME280;67425;52.126;20.638;2023-12-04T04:51:50;58068.81;;;-144.78;99.08
55994;BME280;67425;52.126;20.638;2023-12-04T04:54:15;58066.72;;;-144.78;98.48
55994;BME280;67425;52.126;20.638;2023-12-04T04:56:41;58093.72;;;-144.78;98.53
55994;BME280;67425;52.126;20.638;2023-12-04T04:59:06;58052.19;;;-144.78;98.23
55994;BME280;67425;52.126;20.638;2023-12-04T05:01:31;58062.56;;;-144.78;98.77
55994;BME280;67425;52.126;20.638;2023-12-04T05:03:57;58095.81;;;-144.78;99.28
55994;BME280;67425;52.126;20.638;2023-12-04T05:06:22;58079.19;;;-144.78;99.59
55994;BME280;67425;52.126;20.638;2023-12-04T05:08:48;58070.88;;;-144.78;99.36
55994;BME280;67425;52.126;20.638;2023-12-04T05:11:17;58052.19;;;-144.78;98.65
55994;BME280;67425;52.126;20.638;2023-12-04T05:13:42;58087.50;;;-144.78;97.98
55994;BME280;67425;52.126;20.638;2023-12-04T05:16:08;58029.34;;;-144.78;98.93
55994;BME280;67425;52.126;20.638;2023-12-04T05:18:33;58066.72;;;-144.78;98.64
55994;BME280;67425;52.126;20.638;2023-12-04T05:20:59;58025.19;;;-144.78;97.78
55994;BME280;67425;52.126;20.638;2023-12-04T05:23:24;58081.25;;;-144.78;98.68
55994;BME280;67425;52.126;20.638;2023-12-04T05:25:50;58091.66;;;-144.78;99.13
55994;BME280;67425;52.126;20.638;2023-12-04T05:28:15;58087.50;;;-144.78;98.89
55994;BME280;67425;52.126;20.638;2023-12-04T05:30:40;58066.72;;;-144.78;97.88
55994;BME280;67425;52.126;20.638;2023-12-04T05:33:06;58060.50;;;-144.78;97.48
55994;BME280;67425;52.126;20.638;2023-12-04T05:35:31;58070.88;;;-144.78;97.99
55994;BME280;67425;52.126;20.638;2023-12-04T05:38:01;58066.72;;;-144.78;97.30
55994;BME280;67425;52.126;20.638;2023-12-04T05:40:26;58035.56;;;-144.78;97.35
55994;BME280;67425;52.126;20.638;2023-12-04T05:42:52;58056.34;;;-144.78;98.02
55994;BME280;67425;52.126;20.638;2023-12-04T05:45:17;58066.72;;;-144.78;98.67
55994;BME280;67425;52.126;20.638;2023-12-04T05:47:43;58108.25;;;-144.78;98.78
55994;BME280;67425;52.126;20.638;2023-12-04T05:50:08;58087.50;;;-144.78;99.16
55994;BME280;67425;52.126;20.638;2023-12-04T05:52:34;58091.66;;;-144.78;98.21
55994;BME280;67425;52.126;20.638;2023-12-04T05:54:59;58045.94;;;-144.78;97.79
55994;BME280;67425;52.126;20.638;2023-12-04T05:57:24;58066.72;;;-144.78;99.08
55994;BME280;67425;52.126;20.638;2023-12-04T05:59:50;58048.03;;;-144.78;97.54
55994;BME280;67425;52.126;20.638;2023-12-04T06:02:15;58075.03;;;-144.78;98.60
55994;BME280;67425;52.126;20.638;2023-12-04T06:04:41;58062.56;;;-144.78;97.93
55994;BME280;67425;52.126;20.638;2023-12-04T06:07:07;58060.50;;;-144.78;98.44
55994;BME280;67425;52.126;20.638;2023-12-04T06:09:32;58075.03;;;-144.78;98.09
55994;BME280;67425;52.126;20.638;2023-12-04T06:11:58;58093.72;;;-144.78;97.89
55994;BME280;67425;52.126;20.638;2023-12-04T06:14:29;58050.09;;;-144.78;97.48
55994;BME280;67425;52.126;20.638;2023-12-04T06:16:55;58054.25;;;-144.78;97.73
55994;BME280;67425;52.126;20.638;2023-12-04T06:19:21;58072.97;;;-144.78;98.36
55994;BME280;67425;52.126;20.638;2023-12-04T06:21:46;58095.81;;;-144.78;97.49
55994;BME280;67425;52.126;20.638;2023-12-04T06:24:12;58052.19;;;-144.78;97.17
55994;BME280;67425;52.126;20.638;2023-12-04T06:26:41;58045.94;;;-144.78;97.39
55994;BME280;67425;52.126;20.638;2023-12-04T06:29:08;58072.97;;;-144.78;98.59
55994;BME280;67425;52.126;20.638;2023-12-04T06:31:33;58093.72;;;-144.78;97.66
55994;BME280;67425;52.126;20.638;2023-12-04T06:33:59;58060.50;;;-144.78;97.75
55994;BME280;67425;52.126;20.638;2023-12-04T06:36:25;58054.25;;;-144.78;97.26
55994;BME280;67425;52.126;20.638;2023-12-04T06:38:51;58087.50;;;-144.78;98.16
55994;BME280;67425;52.126;20.638;2023-12-04T06:41:18;58054.25;;;-144.78;98.29
55994;BME280;67425;52.126;20.638;2023-12-04T06:43:44;58068.81;;;-144.78;98.61
55994;BME280;67425;52.126;20.638;2023-12-04T06:46:11;58058.41;;;-144.78;97.23
55994;BME280;67425;52.126;20.638;2023-12-04T06:48:39;58050.09;;;-144.78;96.89
55994;BME280;67425;52.126;20.638;2023-12-04T06:51:07;58072.97;;;-144.78;96.87
55994;BME280;67425;52.126;20.638;2023-12-04T06:53:32;58066.72;;;-144.78;97.94
55994;BME280;67425;52.126;20.638;2023-12-04T06:55:57;58048.03;;;-144.78;97.40
55994;BME280;67425;52.126;20.638;2023-12-04T06:58:23;58075.03;;;-144.78;97.61
55994;BME280;67425;52.126;20.638;2023-12-04T07:00:48;58058.41;;;-144.78;97.55
55994;BME280;67425;52.126;20.638;2023-12-04T07:03:14;58064.66;;;-144.78;97.40
55994;BME280;67425;52.126;20.638;2023-12-04T07:05:39;58035.56;;;-144.78;96.87
55994;BME280;67425;52.126;20.638;2023-12-04T07:08:04;58054.25;;;-144.78;97.31
55994;BME280;67425;52.126;20.638;2023-12-04T07:10:30;58045.94;;;-144.78;96.87
55994;BME280;67425;52.126;20.638;2023-12-04T07:12:55;58041.81;;;-144.78;97.71
55994;BME280;67425;52.126;20.638;2023-12-04T07:15:21;58054.25;;;-144.78;97.81
55994;BME280;67425;52.126;20.638;2023-12-04T07:17:47;58068.81;;;-144.78;96.92
55994;BME280;67425;52.126;20.638;2023-12-04T07:20:12;58081.25;;;-144.78;96.35
55994;BME280;67425;52.126;20.638;2023-12-04T07:22:38;58029.34;;;-144.78;97.52
55994;BME280;67425;52.126;20.638;2023-12-04T07:25:03;58060.50;;;-144.78;97.51
55994;BME280;67425;52.126;20.638;2023-12-04T07:27:29;58072.97;;;-144.78;96.80
55994;BME280;67425;52.126;20.638;2023-12-04T07:29:54;58066.72;;;-144.78;96.42
55994;BME280;67425;52.126;20.638;2023-12-04T07:32:19;58060.50;;;-144.78;96.34
55994;BME280;67425;52.126;20.638;2023-12-04T07:34:45;58031.41;;;-144.78;97.25
55994;BME280;67425;52.126;20.638;2023-12-04T07:37:10;58058.41;;;-144.78;96.49
55994;BME280;67425;52.126;20.638;2023-12-04T07:39:35;58070.88;;;-144.78;97.47
55994;BME280;67425;52.126;20.638;2023-12-04T07:42:01;58050.09;;;-144.78;96.23
55994;BME280;67425;52.126;20.638;2023-12-04T07:44:27;58054.25;;;-144.78;96.73
55994;BME280;67425;52.126;20.638;2023-12-04T07:46:52;58054.25;;;-144.78;96.93
55994;BME280;67425;52.126;20.638;2023-12-04T07:49:18;58072.97;;;-144.78;98.02
55994;BME280;67425;52.126;20.638;2023-12-04T07:51:43;58048.03;;;-144.78;98.18
55994;BME280;67425;52.126;20.638;2023-12-04T07:54:08;58023.09;;;-144.78;98.32
55994;BME280;67425;52.126;20.638;2023-12-04T07:56:34;58081.25;;;-144.78;97.28
55994;BME280;67425;52.126;20.638;2023-12-04T07:58:59;58058.41;;;-144.78;97.67
55994;BME280;67425;52.126;20.638;2023-12-04T08:01:24;58035.56;;;-144.78;97.20
55994;BME280;67425;52.126;20.638;2023-12-04T08:03:50;58054.25;;;-144.78;98.45
55994;BME280;67425;52.126;20.638;2023-12-04T08:06:15;58064.66;;;-144.78;97.39
55994;BME280;67425;52.126;20.638;2023-12-04T08:08:44;58075.03;;;-144.78;97.13
55994;BME280;67425;52.126;20.638;2023-12-04T08:11:10;58077.09;;;-144.78;96.22
55994;BME280;67425;52.126;20.638;2023-12-04T08:13:35;58068.81;;;-144.78;96.06
55994;BME280;67425;52.126;20.638;2023-12-04T08:16:01;58029.34;;;-144.78;95.81
55994;BME280;67425;52.126;20.638;2023-12-04T08:18:26;58033.50;;;-144.78;94.85
55994;BME280;67425;52.126;20.638;2023-12-04T08:20:52;58052.19;;;-144.78;96.70
55994;BME280;67425;52.126;20.638;2023-12-04T08:23:17;58060.50;;;-144.78;95.30
55994;BME280;67425;52.126;20.638;2023-12-04T08:25:42;58052.19;;;-144.78;95.60
55994;BME280;67425;52.126;20.638;2023-12-04T08:28:08;58050.09;;;-144.78;95.40
55994;BME280;67425;52.126;20.638;2023-12-04T08:30:34;58058.41;;;-144.78;95.03
55994;BME280;67425;52.126;20.638;2023-12-04T08:32:59;58050.09;;;-144.78;95.89
55994;BME280;67425;52.126;20.638;2023-12-04T08:35:24;58043.88;;;-144.78;95.20
55994;BME280;67425;52.126;20.638;2023-12-04T08:37:50;58021.03;;;-144.78;95.18
55994;BME280;67425;52.126;20.638;2023-12-04T08:40:16;58041.81;;;-144.78;94.44
55994;BME280;67425;52.126;20.638;2023-12-04T08:42:43;58048.03;;;-144.78;95.04
55994;BME280;67425;52.126;20.638;2023-12-04T08:45:09;58014.81;;;-144.78;93.50
55994;BME280;67425;52.126;20.638;2023-12-04T08:47:34;58037.66;;;-144.78;94.44
55994;BME280;67425;52.126;20.638;2023-12-04T08:50:00;58002.34;;;-144.78;93.72
55994;BME280;67425;52.126;20.638;2023-12-04T08:52:25;58018.94;;;-144.78;93.86
55994;BME280;67425;52.126;20.638;2023-12-04T08:54:51;58033.50;;;-144.78;94.27
55994;BME280;67425;52.126;20.638;2023-12-04T08:57:16;58043.88;;;-144.78;93.70
55994;BME280;67425;52.126;20.638;2023-12-04T08:59:42;58043.88;;;-144.78;94.11
55994;BME280;67425;52.126;20.638;2023-12-04T09:02:07;58041.81;;;-144.78;95.16
55994;BME280;67425;52.126;20.638;2023-12-04T09:04:33;58025.19;;;-144.78;93.77
55994;BME280;67425;52.126;20.638;2023-12-04T09:06:59;58041.81;;;-144.78;93.15
55994;BME280;67425;52.126;20.638;2023-12-04T09:09:24;58018.94;;;-144.78;92.71
55994;BME280;67425;52.126;20.638;2023-12-04T09:11:49;58037.66;;;-144.78;93.29
55994;BME280;67425;52.126;20.638;2023-12-04T09:14:15;58058.41;;;-144.78;93.96
55994;BME280;67425;52.126;20.638;2023-12-04T09:16:41;58045.94;;;-144.78;94.08
55994;BME280;67425;52.126;20.638;2023-12-04T09:19:06;58016.88;;;-144.78;94.20
55994;BME280;67425;52.126;20.638;2023-12-04T09:21:32;58025.19;;;-144.78;93.65
55994;BME280;67425;52.126;20.638;2023-12-04T09:23:58;58010.66;;;-144.78;93.12
55994;BME280;67425;52.126;20.638;2023-12-04T09:26:23;58035.56;;;-144.78;93.07
55994;BME280;67425;52.126;20.638;2023-12-04T09:28:49;58035.56;;;-144.78;92.93
55994;BME280;67425;52.126;20.638;2023-12-04T09:31:14;58031.41;;;-144.78;92.99
55994;BME280;67425;52.126;20.638;2023-12-04T09:33:40;58018.94;;;-144.78;92.92
55994;BME280;67425;52.126;20.638;2023-12-04T09:36:05;58016.88;;;-144.78;92.54
55994;BME280;67425;52.126;20.638;2023-12-04T09:38:31;58021.03;;;-144.78;91.29
55994;BME280;67425;52.126;20.638;2023-12-04T09:40:59;58037.66;;;-144.78;91.34
55994;BME280;67425;52.126;20.638;2023-12-04T09:43:29;57996.09;;;-144.78;91.10
55994;BME280;67425;52.126;20.638;2023-12-04T09:45:56;58025.19;;;-144.78;90.83
55994;BME280;67425;52.126;20.638;2023-12-04T09:48:23;58025.19;;;-144.78;91.28
55994;BME280;67425;52.126;20.638;2023-12-04T09:50:51;58008.56;;;-144.78;90.68
55994;BME280;67425;52.126;20.638;2023-12-04T09:53:17;57996.09;;;-144.78;92.10
55994;BME280;67425;52.126;20.638;2023-12-04T09:55:43;58012.72;;;-144.78;90.81
55994;BME280;67425;52.126;20.638;2023-12-04T09:58:11;58008.56;;;-144.78;90.82
55994;BME280;67425;52.126;20.638;2023-12-04T10:00:41;58031.41;;;-144.78;91.29
55994;BME280;67425;52.126;20.638;2023-12-04T10:03:08;58010.66;;;-144.78;90.86
55994;BME280;67425;52.126;20.638;2023-12-04T10:05:33;57987.78;;;-144.78;90.77
55994;BME280;67425;52.126;20.638;2023-12-04T10:07:58;57989.88;;;-144.78;90.07
55994;BME280;67425;52.126;20.638;2023-12-04T10:10:24;58002.34;;;-144.78;91.36
55994;BME280;67425;52.126;20.638;2023-12-04T10:12:50;58027.25;;;-144.78;90.52
55994;BME280;67425;52.126;20.638;2023-12-04T10:15:16;58021.03;;;-144.78;89.73
55994;BME280;67425;52.126;20.638;2023-12-04T10:17:42;58014.81;;;-144.78;89.90
55994;BME280;67425;52.126;20.638;2023-12-04T10:20:13;58002.34;;;-144.78;89.46
55994;BME280;67425;52.126;20.638;2023-12-04T10:22:55;57979.50;;;-144.78;89.60
55994;BME280;67425;52.126;20.638;2023-12-04T10:25:21;58012.72;;;-144.78;89.40
55994;BME280;67425;52.126;20.638;2023-12-04T10:27:47;57996.09;;;-144.78;88.78
55994;BME280;67425;52.126;20.638;2023-12-04T10:30:27;57973.25;;;-144.78;88.10
55994;BME280;67425;52.126;20.638;2023-12-04T10:32:57;58021.03;;;-144.78;88.58
55994;BME280;67425;52.126;20.638;2023-12-04T10:35:28;57996.09;;;-144.78;88.26
55994;BME280;67425;52.126;20.638;2023-12-04T10:37:56;57979.50;;;-144.78;88.13
55994;BME280;67425;52.126;20.638;2023-12-04T10:40:25;57979.50;;;-144.78;88.44
55994;BME280;67425;52.126;20.638;2023-12-04T10:42:57;58002.34;;;-144.78;89.21
55994;BME280;67425;52.126;20.638;2023-12-04T10:45:36;57987.78;;;-144.78;88.01
55994;BME280;67425;52.126;20.638;2023-12-04T10:48:03;57983.66;;;-144.78;87.22
55994;BME280;67425;52.126;20.638;2023-12-04T10:50:40;57983.66;;;-144.78;86.22
55994;BME280;67425;52.126;20.638;2023-12-04T10:53:10;57985.72;;;-144.78;87.30
55994;BME280;67425;52.126;20.638;2023-12-04T10:55:36;57960.78;;;-144.78;87.99
55994;BME280;67425;52.126;20.638;2023-12-04T10:58:13;57971.19;;;-144.78;87.57
55994;BME280;67425;52.126;20.638;2023-12-04T11:00:48;57987.78;;;-144.78;86.51
55994;BME280;67425;52.126;20.638;2023-12-04T11:03:21;57983.66;;;-144.78;87.33
55994;BME280;67425;52.126;20.638;2023-12-04T11:05:55;57952.50;;;-144.78;86.28
55994;BME280;67425;52.126;20.638;2023-12-04T11:08:21;57979.50;;;-144.78;86.88
55994;BME280;67425;52.126;20.638;2023-12-04T11:11:01;57952.50;;;-144.78;86.62
55994;BME280;67425;52.126;20.638;2023-12-04T11:13:30;57987.78;;;-144.78;87.93
55994;BME280;67425;52.126;20.638;2023-12-04T11:16:01;57973.25;;;-144.78;86.35
55994;BME280;67425;52.126;20.638;2023-12-04T11:18:31;57958.72;;;-144.78;86.34
55994;BME280;67425;52.126;20.638;2023-12-04T11:21:06;57971.19;;;-144.78;86.46
55994;BME280;67425;52.126;20.638;2023-12-04T11:23:32;57958.72;;;-144.78;85.93
55994;BME280;67425;52.126;20.638;2023-12-04T11:25:58;57975.34;;;-144.78;86.09
55994;BME280;67425;52.126;20.638;2023-12-04T11:28:26;57973.25;;;-144.78;85.33
55994;BME280;67425;52.126;20.638;2023-12-04T11:30:53;57969.09;;;-144.78;85.88
55994;BME280;67425;52.126;20.638;2023-12-04T11:33:19;57987.78;;;-144.78;85.86
55994;BME280;67425;52.126;20.638;2023-12-04T11:35:45;57950.41;;;-144.78;85.65
55994;BME280;67425;52.126;20.638;2023-12-04T11:38:13;57956.63;;;-144.78;86.42
55994;BME280;67425;52.126;20.638;2023-12-04T11:40:40;57991.94;;;-144.78;88.06
55994;BME280;67425;52.126;20.638;2023-12-04T11:43:36;57996.09;;;-144.78;89.15
55994;BME280;67425;52.126;20.638;2023-12-04T11:46:09;58004.41;;;-144.78;89.28
55994;BME280;67425;52.126;20.638;2023-12-04T11:48:36;58002.34;;;-144.78;88.28
55994;BME280;67425;52.126;20.638;2023-12-04T11:51:02;58014.81;;;-144.78;87.90
55994;BME280;67425;52.126;20.638;2023-12-04T11:53:27;58004.41;;;-144.78;88.25
55994;BME280;67425;52.126;20.638;2023-12-04T11:55:55;57989.88;;;-144.78;88.18
55994;BME280;67425;52.126;20.638;2023-12-04T11:58:22;57983.66;;;-144.78;87.33
55994;BME280;67425;52.126;20.638;2023-12-04T12:00:47;57985.72;;;-144.78;87.73
55994;BME280;67425;52.126;20.638;2023-12-04T12:03:14;58018.94;;;-144.78;88.86
55994;BME280;67425;52.126;20.638;2023-12-04T12:05:40;57987.78;;;-144.78;87.66
55994;BME280;67425;52.126;20.638;2023-12-04T12:08:07;58031.41;;;-144.78;89.22
55994;BME280;67425;52.126;20.638;2023-12-04T12:10:34;57985.72;;;-144.78;88.70
55994;BME280;67425;52.126;20.638;2023-12-04T12:13:00;57991.94;;;-144.78;88.51
55994;BME280;67425;52.126;20.638;2023-12-04T12:15:27;58008.56;;;-144.78;87.90
55994;BME280;67425;52.126;20.638;2023-12-04T12:17:53;57975.34;;;-144.78;88.67
55994;BME280;67425;52.126;20.638;2023-12-04T12:20:19;57991.94;;;-144.78;88.09
55994;BME280;67425;52.126;20.638;2023-12-04T12:22:47;57967.03;;;-144.78;87.74